Time;durP1;ratioP1;P1;durP2;ratioP2;P2;SDS_P1;SDS_P2;PMS_P1;PMS_P2;Temp;Humidity;BMP_temperature;BMP_pressure;BME280_temperature;BME280_humidity;BME280_pressure;Samples;Min_cycle;Max_cycle;Signal;HPM_P1;HPM_P2
2022/02/26 21:08:30;;;;;;;15.07;10.68;;;;;;;12.93;36.22;94831.84;4993935;28;96486;-58
2022/02/26 21:10:55;;;;;;;11.73;8.80;;;;;;;13.45;35.27;94845.66;4991966;28;97570;-54
2022/02/26 21:13:20;;;;;;;14.02;9.60;;;;;;;13.94;34.60;94823.63;4992231;28;99482;-60
2022/02/26 21:15:46;;;;;;;15.13;9.40;;;;;;;14.36;34.02;94810.59;4991605;28;99093;-60
2022/02/26 21:18:11;;;;;;;14.07;9.52;;;;;;;14.77;33.64;94813.81;4992635;28;96700;-56
2022/02/26 21:20:37;;;;;;;13.82;8.95;;;;;;;15.08;33.24;94812.09;4992840;28;96879;-60
2022/02/26 21:23:03;;;;;;;18.90;13.20;;;;;;;15.33;33.21;94811.78;4991520;28;99610;-60
2022/02/26 21:25:29;;;;;;;21.50;14.68;;;;;;;15.54;33.27;94813.34;4990428;28;99269;-59
2022/02/26 21:27:54;;;;;;;19.05;13.15;;;;;;;15.69;33.26;94801.50;4990614;28;96756;-61
2022/02/26 21:30:20;;;;;;;20.95;16.23;;;;;;;15.84;33.24;94809.94;4990426;28;96992;-58
2022/02/26 21:32:45;;;;;;;22.85;16.52;;;;;;;15.94;33.17;94806.63;4990800;28;99572;-58
2022/02/26 21:35:10;;;;;;;23.45;17.73;;;;;;;16.04;33.25;94809.91;4990815;28;99243;-61
2022/02/26 21:37:36;;;;;;;20.02;14.82;;;;;;;16.10;33.30;94797.53;4990091;28;96735;-60
2022/02/26 21:40:01;;;;;;;24.63;19.63;;;;;;;16.16;33.33;94801.53;4989795;28;97056;-55
2022/02/26 21:42:27;;;;;;;23.45;20.70;;;;;;;16.21;33.31;94798.47;4990502;28;99624;-61
2022/02/26 21:44:52;;;;;;;21.33;18.40;;;;;;;16.28;33.90;94798.56;4991194;28;99397;-60
2022/02/26 21:47:18;;;;;;;30.30;24.88;;;;;;;16.35;33.64;94797.91;4991467;28;96730;-59
2022/02/26 21:49:43;;;;;;;22.67;17.95;;;;;;;16.37;33.36;94802.97;4991472;28;96992;-64
2022/02/26 21:52:08;;;;;;;21.67;18.02;;;;;;;16.40;33.29;94794.06;4990628;28;99539;-63
2022/02/26 21:54:34;;;;;;;23.70;18.52;;;;;;;16.40;33.33;94797.59;4990974;28;99303;-61
2022/02/26 21:56:59;;;;;;;20.90;17.30;;;;;;;16.44;33.40;94794.91;4991426;28;96870;-61
2022/02/26 21:59:25;;;;;;;20.23;15.20;;;;;;;16.46;33.40;94795.31;4991440;28;97346;-61
2022/02/26 22:01:50;;;;;;;21.77;15.75;;;;;;;16.47;33.30;94783.25;4990710;28;99368;-58
2022/02/26 22:04:15;;;;;;;18.42;13.50;;;;;;;16.49;33.32;94774.69;4990993;28;99202;-61
2022/02/26 22:06:41;;;;;;;14.10;11.85;;;;;;;16.50;33.44;94779.78;4983465;28;96982;-54
2022/02/26 22:09:09;;;;;;;29.40;26.40;;;;;;;16.54;33.74;94777.91;4953749;28;96951;-58
2022/02/26 22:11:35;;;;;;;18.10;12.63;;;;;;;16.55;33.50;94771.28;4970900;28;99253;-60
2022/02/26 22:14:00;;;;;;;18.95;13.80;;;;;;;16.55;33.33;94768.56;4970995;28;99140;-52
2022/02/26 22:16:26;;;;;;;18.55;13.63;;;;;;;16.54;33.55;94761.53;4971434;28;96687;-55
2022/02/26 22:18:51;;;;;;;20.83;14.77;;;;;;;16.54;33.37;94767.00;4963836;28;97831;-61
2022/02/26 22:21:16;;;;;;;20.55;16.38;;;;;;;16.54;33.80;94750.63;4957899;28;99434;-61
2022/02/26 22:23:42;;;;;;;17.73;13.98;;;;;;;16.56;33.76;94756.50;4957559;28;99154;-59
2022/02/26 22:26:08;;;;;;;17.50;13.60;;;;;;;16.55;33.67;94768.56;4958403;28;96718;-59
2022/02/26 22:28:34;;;;;;;16.58;13.07;;;;;;;16.57;33.80;94766.25;4957994;28;96921;-61
2022/02/26 22:31:00;;;;;;;17.67;13.38;;;;;;;16.58;33.73;94754.19;4957640;28;99783;-60
2022/02/26 22:33:26;;;;;;;15.80;10.95;;;;;;;16.58;33.73;94767.81;4957369;28;99604;-59
2022/02/26 22:35:51;;;;;;;20.10;16.05;;;;;;;16.60;34.11;94765.50;4957782;28;96674;-58
2022/02/26 22:38:16;;;;;;;17.85;14.60;;;;;;;16.67;34.14;94758.56;4958006;28;96597;-59
2022/02/26 22:40:46;;;;;;;19.02;14.90;;;;;;;16.65;34.00;94771.81;4957501;28;98062;-62
2022/02/26 22:43:12;;;;;;;17.65;14.10;;;;;;;16.65;33.82;94777.25;4957511;28;99345;-63
2022/02/26 22:45:37;;;;;;;17.55;13.15;;;;;;;16.58;33.73;94762.38;4957747;28;96756;-67
2022/02/26 22:48:03;;;;;;;16.73;12.10;;;;;;;16.66;33.87;94770.66;4957922;28;96961;-64
2022/02/26 22:50:29;;;;;;;17.83;13.25;;;;;;;16.70;34.34;94779.66;4956998;28;99401;-61
2022/02/26 22:52:54;;;;;;;16.83;12.48;;;;;;;16.56;32.58;94770.13;4957159;28;99616;-62
2022/02/26 22:55:20;;;;;;;18.27;13.57;;;;;;;16.32;32.17;94793.19;4957782;28;96766;-64
2022/02/26 22:57:45;;;;;;;16.80;12.55;;;;;;;16.24;32.42;94765.00;4957514;28;96724;-61
2022/02/26 23:00:26;;;;;;;18.83;13.05;;;;;;;16.32;32.98;94771.38;4957338;28;99459;-59
2022/02/26 23:02:52;;;;;;;23.40;12.70;;;;;;;16.29;33.87;94766.66;4957082;28;98957;-60
2022/02/26 23:05:17;;;;;;;12.55;9.90;;;;;;;16.47;34.00;94777.78;4957474;28;96822;-58
2022/02/26 23:07:43;;;;;;;13.68;9.43;;;;;;;16.49;34.32;94772.75;4957807;28;97036;-62
2022/02/26 23:10:08;;;;;;;15.70;10.05;;;;;;;16.58;34.08;94778.72;4957854;28;98102;-58
2022/02/26 23:12:34;;;;;;;13.32;9.98;;;;;;;16.58;33.87;94788.84;4956893;28;99343;-63
2022/02/26 23:14:59;;;;;;;17.17;9.75;;;;;;;16.59;33.78;94791.22;4957344;28;96711;-64
2022/02/26 23:17:25;;;;;;;10.35;8.13;;;;;;;16.57;33.87;94788.06;4958084;28;96889;-63
2022/02/26 23:19:50;;;;;;;15.63;10.48;;;;;;;16.61;34.07;94782.66;4957332;28;99282;-62
2022/02/26 23:22:16;;;;;;;11.98;8.75;;;;;;;16.61;34.10;94788.09;4956674;28;98423;-63
2022/02/26 23:24:41;;;;;;;11.20;8.10;;;;;;;16.63;34.10;94791.25;4957812;28;96824;-62
2022/02/26 23:27:07;;;;;;;13.90;10.73;;;;;;;16.65;34.15;94785.44;4957582;28;96974;-60
2022/02/26 23:29:32;;;;;;;15.32;11.18;;;;;;;16.66;34.12;94784.28;4940884;28;100222;-59
2022/02/26 23:31:57;;;;;;;18.20;13.52;;;;;;;16.68;34.81;94776.50;4955922;28;99292;-65
2022/02/26 23:34:23;;;;;;;21.13;13.63;;;;;;;16.68;34.36;94773.78;4956996;28;96527;-63
2022/02/26 23:36:48;;;;;;;24.58;16.25;;;;;;;16.66;34.28;94773.38;4956719;28;96594;-61
2022/02/26 23:39:14;;;;;;;22.05;16.73;;;;;;;16.67;34.37;94774.94;4938016;28;99049;-63
2022/02/26 23:41:39;;;;;;;20.48;15.27;;;;;;;16.64;34.34;94775.69;4937204;28;97779;-60
2022/02/26 23:44:05;;;;;;;18.33;13.70;;;;;;;16.70;34.33;94774.19;4937632;28;96657;-61
2022/02/26 23:46:31;;;;;;;19.10;14.38;;;;;;;16.70;34.45;94774.19;4968568;28;97033;-59
2022/02/26 23:48:56;;;;;;;20.77;16.08;;;;;;;16.72;34.63;94782.81;4967885;28;99735;-58
2022/02/26 23:51:23;;;;;;;17.60;13.35;;;;;;;16.71;34.67;94776.53;4937128;28;99147;-60
2022/02/26 23:53:48;;;;;;;19.42;14.25;;;;;;;16.68;34.65;94773.78;4937234;28;96723;-64
2022/02/26 23:56:14;;;;;;;20.25;14.77;;;;;;;16.72;34.56;94788.25;4937256;28;96998;-58
2022/02/26 23:58:39;;;;;;;17.58;13.23;;;;;;;16.70;34.89;94783.16;4936606;28;99744;-56
